Time;durP1;ratioP1;P1;durP2;ratioP2;P2;SDS_P1;SDS_P2;PMS_P1;PMS_P2;Temp;Humidity;BMP_temperature;BMP_pressure;BME280_temperature;BME280_humidity;BME280_pressure;Samples;Min_cycle;Max_cycle;Signal;HPM_P1;HPM_P2
2023/08/30 00:02:23;;;;;;;5.32;3.70;;;;;;;;;;5009426;28;20025;-86
2023/08/30 00:04:49;;;;;;;6.53;3.78;;;;;;;;;;5004367;28;20071;-86
2023/08/30 00:07:14;;;;;;;6.03;3.90;;;;;;;;;;4996294;28;20028;-86
2023/08/30 00:09:40;;;;;;;6.85;4.15;;;;;;;;;;5004492;28;20033;-86
2023/08/30 00:12:05;;;;;;;4.95;3.67;;;;;;;;;;5004949;28;20034;-86
2023/08/30 00:14:32;;;;;;;6.50;4.35;;;;;;;;;;5010454;28;20385;-86
2023/08/30 00:16:57;;;;;;;10.57;4.13;;;;;;;;;;5009982;28;20049;-86
2023/08/30 00:19:23;;;;;;;7.35;4.72;;;;;;;;;;5000169;28;20041;-86
2023/08/30 00:21:48;;;;;;;7.10;4.28;;;;;;;;;;5006022;28;20402;-85
2023/08/30 00:24:13;;;;;;;6.20;3.97;;;;;;;;;;5001542;28;20033;-85
2023/08/30 00:26:39;;;;;;;6.05;4.13;;;;;;;;;;5009253;28;20102;-85
2023/08/30 00:29:04;;;;;;;5.47;3.88;;;;;;;;;;5006972;28;20034;-83
2023/08/30 00:31:30;;;;;;;6.05;4.40;;;;;;;;;;5005015;28;21105;-86
2023/08/30 00:33:55;;;;;;;7.53;4.45;;;;;;;;;;5005059;28;20032;-86
2023/08/30 00:36:21;;;;;;;6.05;4.00;;;;;;;;;;5004105;28;20038;-86
2023/08/30 00:38:47;;;;;;;6.70;4.25;;;;;;;;;;5005689;28;20034;-83
2023/08/30 00:41:12;;;;;;;5.65;4.00;;;;;;;;;;5005248;28;20033;-86
2023/08/30 00:43:38;;;;;;;5.40;4.18;;;;;;;;;;5009648;28;20033;-86
2023/08/30 00:46:04;;;;;;;6.38;4.18;;;;;;;;;;5005072;28;20378;-86
2023/08/30 00:48:29;;;;;;;6.07;4.45;;;;;;;;;;5010206;28;20021;-86
2023/08/30 00:50:54;;;;;;;6.75;4.20;;;;;;;;;;4987174;28;20433;-86
2023/08/30 00:53:20;;;;;;;7.22;4.38;;;;;;;;;;4994817;28;20038;-85
2023/08/30 00:55:45;;;;;;;6.50;4.47;;;;;;;;;;4983497;28;20073;-84
2023/08/30 00:58:11;;;;;;;5.43;4.00;;;;;;;;;;4972274;28;20097;-85
2023/08/30 01:00:37;;;;;;;7.00;4.20;;;;;;;;;;4967886;28;20082;-86
2023/08/30 01:03:04;;;;;;;7.18;4.30;;;;;;;;;;4973026;28;20034;-86
2023/08/30 01:05:29;;;;;;;7.55;4.57;;;;;;;;;;4970577;28;20389;-85
2023/08/30 01:07:54;;;;;;;6.65;4.38;;;;;;;;;;4988357;28;20030;-85
2023/08/30 01:10:27;;;;;;;6.32;4.25;;;;;;;;;;4973909;28;20072;-85
2023/08/30 01:12:57;;;;;;;;;;;;;;;;;;4955224;28;20389;-85
2023/08/30 01:15:23;;;;;;;7.57;4.63;;;;;;;;;;4973180;28;19925;-85
2023/08/30 01:17:52;;;;;;;7.38;4.65;;;;;;;;;;4989224;28;20508;-85
2023/08/30 01:20:20;;;;;;;7.22;4.70;;;;;;;;;;4990122;28;20036;-86
2023/08/30 01:23:26;;;;;;;6.10;4.30;;;;;;;;;;4983345;28;20036;-86
2023/08/30 01:26:13;;;;;;;6.72;4.47;;;;;;;;;;4987406;28;21704;-82
2023/08/30 01:28:39;;;;;;;8.90;5.00;;;;;;;;;;4972610;28;21588;-86
2023/08/30 01:31:09;;;;;;;5.95;4.07;;;;;;;;;;4984853;28;20466;-85
2023/08/30 01:33:36;;;;;;;6.50;4.70;;;;;;;;;;4985662;28;20057;-85
2023/08/30 01:36:03;;;;;;;7.13;4.60;;;;;;;;;;4988369;28;20027;-83
2023/08/30 01:38:29;;;;;;;7.18;4.70;;;;;;;;;;4983693;28;20049;-86
2023/08/30 01:40:57;;;;;;;6.97;4.78;;;;;;;;;;4967688;28;20537;-85
2023/08/30 01:43:26;;;;;;;7.05;4.43;;;;;;;;;;4986644;28;20018;-84
2023/08/30 01:45:51;;;;;;;6.88;5.05;;;;;;;;;;4968090;28;20758;-85
2023/08/30 01:48:19;;;;;;;11.18;4.95;;;;;;;;;;4980087;28;20034;-84
2023/08/30 01:50:45;;;;;;;8.15;4.60;;;;;;;;;;4968289;28;20108;-85
2023/08/30 01:53:13;;;;;;;6.80;4.95;;;;;;;;;;4975515;28;20109;-85
2023/08/30 01:55:39;;;;;;;7.47;4.78;;;;;;;;;;4983123;28;20022;-82
2023/08/30 01:58:05;;;;;;;7.65;5.13;;;;;;;;;;4987340;28;20026;-86
2023/08/30 02:00:31;;;;;;;6.47;4.55;;;;;;;;;;4969343;28;20032;-85
2023/08/30 02:02:57;;;;;;;6.30;4.30;;;;;;;;;;4971591;28;20034;-85
2023/08/30 02:05:22;;;;;;;7.70;5.18;;;;;;;;;;4988768;28;20442;-86
2023/08/30 02:07:59;;;;;;;8.25;4.90;;;;;;;;;;4991155;28;20110;-85
2023/08/30 02:10:31;;;;;;;7.07;4.78;;;;;;;;;;4967592;28;20557;-84
2023/08/30 02:12:57;;;;;;;6.22;4.68;;;;;;;;;;4979247;28;20034;-84
2023/08/30 02:15:25;;;;;;;6.80;4.85;;;;;;;;;;4988460;28;20378;-85
2023/08/30 02:17:51;;;;;;;7.40;4.70;;;;;;;;;;4986816;28;20084;-85
2023/08/30 02:20:17;;;;;;;8.65;4.68;;;;;;;;;;4987993;28;20042;-86
2023/08/30 02:22:43;;;;;;;7.95;4.65;;;;;;;;;;4983983;28;20030;-84
2023/08/30 02:25:10;;;;;;;7.45;5.15;;;;;;;;;;4980947;28;20348;-80
2023/08/30 02:27:35;;;;;;;7.60;4.78;;;;;;;;;;4985868;28;20041;-85
2023/08/30 02:30:00;;;;;;;8.02;5.28;;;;;;;;;;4988539;28;20026;-85
2023/08/30 02:32:26;;;;;;;6.63;4.70;;;;;;;;;;4982552;28;20027;-77
2023/08/30 02:34:52;;;;;;;7.32;4.80;;;;;;;;;;4985411;28;20371;-77
2023/08/30 02:37:18;;;;;;;7.20;4.63;;;;;;;;;;4988940;28;20103;-77
2023/08/30 02:39:44;;;;;;;7.28;4.88;;;;;;;;;;4969909;28;20033;-79
2023/08/30 02:42:09;;;;;;;8.43;4.72;;;;;;;;;;4990996;28;20093;-77
2023/08/30 02:44:34;;;;;;;7.88;4.90;;;;;;;;;;4985532;28;20022;-78
2023/08/30 02:47:00;;;;;;;7.35;4.85;;;;;;;;;;4988448;28;20031;-77
2023/08/30 02:49:25;;;;;;;9.07;4.90;;;;;;;;;;4970413;28;20438;-77
2023/08/30 02:51:51;;;;;;;8.13;5.05;;;;;;;;;;4968925;28;20035;-77
2023/08/30 02:54:16;;;;;;;7.72;5.10;;;;;;;;;;4964741;28;20039;-78
2023/08/30 02:56:43;;;;;;;8.73;5.18;;;;;;;;;;4983662;28;20064;-78
2023/08/30 02:59:09;;;;;;;7.75;5.43;;;;;;;;;;4981786;28;20049;-77
2023/08/30 03:01:34;;;;;;;9.23;5.70;;;;;;;;;;4963877;28;20035;-78
2023/08/30 03:04:00;;;;;;;8.80;5.80;;;;;;;;;;4962110;28;20080;-77
2023/08/30 03:06:25;;;;;;;8.02;5.47;;;;;;;;;;4968908;28;20089;-77
2023/08/30 03:08:50;;;;;;;8.32;5.18;;;;;;;;;;4990240;28;20367;-77
2023/08/30 03:11:16;;;;;;;8.68;6.00;;;;;;;;;;4972033;28;20045;-77
2023/08/30 03:13:41;;;;;;;7.72;4.93;;;;;;;;;;4970353;28;20058;-77
2023/08/30 03:16:14;;;;;;;8.50;5.22;;;;;;;;;;4969032;28;20541;-78
2023/08/30 03:18:40;;;;;;;9.60;5.25;;;;;;;;;;4991243;28;20026;-78
2023/08/30 03:21:06;;;;;;;8.13;5.10;;;;;;;;;;4970929;28;20030;-78
2023/08/30 03:23:32;;;;;;;8.93;5.95;;;;;;;;;;4968511;28;20033;-78
2023/08/30 03:25:58;;;;;;;10.55;5.90;;;;;;;;;;4978927;28;20060;-77
2023/08/30 03:28:24;;;;;;;8.05;4.93;;;;;;;;;;4985079;28;20490;-78
2023/08/30 03:30:49;;;;;;;7.75;5.10;;;;;;;;;;4966304;28;20057;-78
2023/08/30 03:33:14;;;;;;;7.60;5.40;;;;;;;;;;4985428;28;20040;-78
2023/08/30 03:35:40;;;;;;;10.57;5.47;;;;;;;;;;4984485;28;20034;-77
2023/08/30 03:38:05;;;;;;;8.80;5.43;;;;;;;;;;4986901;28;20084;-77
2023/08/30 03:40:31;;;;;;;8.35;5.47;;;;;;;;;;4967854;28;20026;-78
2023/08/30 03:42:56;;;;;;;7.72;5.53;;;;;;;;;;4969354;28;20502;-85
2023/08/30 03:45:21;;;;;;;9.68;5.57;;;;;;;;;;4991666;28;20030;-83
2023/08/30 03:47:47;;;;;;;8.68;5.97;;;;;;;;;;4967515;28;20414;-85
2023/08/30 03:50:13;;;;;;;8.15;5.60;;;;;;;;;;4993794;28;20018;-83
2023/08/30 03:52:39;;;;;;;8.82;6.00;;;;;;;;;;4990235;28;20164;-81
2023/08/30 03:55:04;;;;;;;8.18;5.43;;;;;;;;;;4987716;28;20122;-84
2023/08/30 03:57:30;;;;;;;9.85;5.72;;;;;;;;;;4990152;28;20502;-85
2023/08/30 03:59:55;;;;;;;8.40;5.60;;;;;;;;;;4988067;28;20682;-84
2023/08/30 04:02:20;;;;;;;7.80;5.43;;;;;;;;;;4986431;28;20470;-85
2023/08/30 04:04:49;;;;;;;8.95;5.60;;;;;;;;;;4984945;28;20022;-85
2023/08/30 04:07:15;;;;;;;8.18;5.95;;;;;;;;;;4981646;28;20155;-84
2023/08/30 04:09:40;;;;;;;8.13;5.80;;;;;;;;;;4985494;28;20026;-85
2023/08/30 04:12:06;;;;;;;9.32;5.60;;;;;;;;;;4984197;28;20471;-82
2023/08/30 04:14:32;;;;;;;7.80;5.78;;;;;;;;;;4967781;28;20093;-84
2023/08/30 04:16:57;;;;;;;8.55;5.43;;;;;;;;;;4986111;28;20030;-85
2023/08/30 04:19:22;;;;;;;7.28;5.45;;;;;;;;;;4987598;28;20478;-85
2023/08/30 04:21:48;;;;;;;10.35;5.90;;;;;;;;;;4966562;28;20117;-85
2023/08/30 04:24:14;;;;;;;9.40;5.30;;;;;;;;;;4968114;28;20104;-86
2023/08/30 04:26:40;;;;;;;7.65;5.68;;;;;;;;;;4989032;28;20479;-86
2023/08/30 04:29:05;;;;;;;10.13;5.78;;;;;;;;;;4984475;28;20033;-85
2023/08/30 04:31:30;;;;;;;8.35;5.60;;;;;;;;;;4991141;28;20437;-85
2023/08/30 04:33:56;;;;;;;8.82;5.88;;;;;;;;;;4984782;28;20057;-84
2023/08/30 04:36:21;;;;;;;8.77;6.10;;;;;;;;;;4986775;28;20034;-83
2023/08/30 04:38:47;;;;;;;7.75;5.45;;;;;;;;;;4968114;28;20433;-85
2023/08/30 04:41:12;;;;;;;9.27;5.80;;;;;;;;;;4981083;28;20035;-84
2023/08/30 04:43:38;;;;;;;8.23;5.30;;;;;;;;;;4985554;28;20062;-84
2023/08/30 04:46:03;;;;;;;8.98;5.60;;;;;;;;;;4984038;28;20038;-84
2023/08/30 04:48:28;;;;;;;8.05;5.50;;;;;;;;;;4954404;28;20042;-80
2023/08/30 04:51:04;;;;;;;8.95;5.72;;;;;;;;;;4983410;28;20038;-84
2023/08/30 04:53:30;;;;;;;9.13;5.85;;;;;;;;;;4982740;28;20030;-84
2023/08/30 04:55:56;;;;;;;8.43;6.00;;;;;;;;;;4959542;28;20065;-84
2023/08/30 04:58:21;;;;;;;9.27;6.13;;;;;;;;;;4988034;28;20034;-84
2023/08/30 05:00:46;;;;;;;8.23;5.78;;;;;;;;;;4981664;28;20038;-82
2023/08/30 05:03:12;;;;;;;8.30;5.63;;;;;;;;;;4992741;28;20030;-84
2023/08/30 05:05:37;;;;;;;8.20;5.75;;;;;;;;;;4996926;28;20101;-84
2023/08/30 05:08:03;;;;;;;9.93;5.95;;;;;;;;;;4972633;28;20109;-86
2023/08/30 05:10:29;;;;;;;8.35;6.20;;;;;;;;;;4995198;28;20088;-84
2023/08/30 05:12:54;;;;;;;7.25;5.35;;;;;;;;;;4971146;28;20034;-84
2023/08/30 05:15:20;;;;;;;9.55;6.25;;;;;;;;;;4988171;28;20045;-85
2023/08/30 05:17:45;;;;;;;9.52;6.38;;;;;;;;;;4990845;28;20443;-85
2023/08/30 05:20:11;;;;;;;8.27;5.95;;;;;;;;;;4968224;28;20084;-80
2023/08/30 05:22:36;;;;;;;8.30;5.97;;;;;;;;;;4992255;28;20034;-83
2023/08/30 05:25:02;;;;;;;8.60;6.03;;;;;;;;;;4987311;28;20458;-84
2023/08/30 05:27:28;;;;;;;9.70;6.05;;;;;;;;;;4973469;28;20080;-84
2023/08/30 05:29:55;;;;;;;8.52;5.95;;;;;;;;;;4993144;28;20052;-83
2023/08/30 05:32:21;;;;;;;9.07;6.20;;;;;;;;;;4986097;28;20057;-82
2023/08/30 05:34:46;;;;;;;9.13;6.30;;;;;;;;;;4990777;28;20517;-80
2023/08/30 05:37:11;;;;;;;9.30;5.65;;;;;;;;;;4989889;28;20113;-84
2023/08/30 05:39:36;;;;;;;8.40;5.90;;;;;;;;;;4984715;28;20044;-85
2023/08/30 05:42:02;;;;;;;8.93;6.00;;;;;;;;;;4986110;28;20054;-84
2023/08/30 05:44:28;;;;;;;8.60;5.82;;;;;;;;;;4972823;28;20046;-82
2023/08/30 05:46:53;;;;;;;8.00;5.97;;;;;;;;;;4950515;28;20494;-82
2023/08/30 05:49:19;;;;;;;10.57;6.47;;;;;;;;;;4993784;28;20025;-85
2023/08/30 05:51:44;;;;;;;10.27;6.75;;;;;;;;;;4987354;28;20027;-85
2023/08/30 05:54:09;;;;;;;10.65;5.97;;;;;;;;;;4988701;28;20036;-84
2023/08/30 05:56:35;;;;;;;8.10;5.88;;;;;;;;;;4974390;28;20079;-84
2023/08/30 05:59:00;;;;;;;8.13;6.38;;;;;;;;;;4984533;28;20395;-84
2023/08/30 06:01:25;;;;;;;9.05;6.88;;;;;;;;;;4988069;28;20031;-85
2023/08/30 06:03:51;;;;;;;9.13;5.45;;;;;;;;;;4987577;28;20026;-85
2023/08/30 06:06:16;;;;;;;9.35;6.22;;;;;;;;;;4987413;28;20056;-86
2023/08/30 06:08:42;;;;;;;9.50;6.10;;;;;;;;;;4965418;28;20026;-84
2023/08/30 06:11:08;;;;;;;7.82;5.57;;;;;;;;;;4985126;28;20041;-83
2023/08/30 06:13:33;;;;;;;10.05;6.20;;;;;;;;;;4981136;28;20109;-81
2023/08/30 06:15:58;;;;;;;10.07;6.45;;;;;;;;;;4983280;28;20040;-85
2023/08/30 06:18:24;;;;;;;9.95;6.13;;;;;;;;;;4972737;28;20026;-83
2023/08/30 06:20:49;;;;;;;9.73;6.13;;;;;;;;;;4972536;28;20034;-85
2023/08/30 06:23:19;;;;;;;10.00;6.38;;;;;;;;;;4980756;28;20037;-85
2023/08/30 06:25:45;;;;;;;10.00;6.20;;;;;;;;;;4981148;28;20463;-85
2023/08/30 06:28:10;;;;;;;8.77;6.22;;;;;;;;;;4989087;28;20026;-85
2023/08/30 06:30:35;;;;;;;8.85;5.78;;;;;;;;;;4988140;28;20041;-84
2023/08/30 06:33:01;;;;;;;11.40;6.70;;;;;;;;;;4971829;28;20022;-84
2023/08/30 06:35:27;;;;;;;10.23;6.80;;;;;;;;;;4983181;28;20038;-84
2023/08/30 06:37:53;;;;;;;9.40;5.70;;;;;;;;;;4988655;28;20041;-83
2023/08/30 06:40:18;;;;;;;12.13;7.72;;;;;;;;;;4985109;28;20469;-82
2023/08/30 06:42:44;;;;;;;8.30;6.07;;;;;;;;;;4965820;28;20041;-81
2023/08/30 06:45:11;;;;;;;9.25;6.38;;;;;;;;;;4987337;28;20031;-80
2023/08/30 06:47:36;;;;;;;8.68;5.78;;;;;;;;;;4989656;28;20057;-80
2023/08/30 06:50:01;;;;;;;11.45;5.90;;;;;;;;;;4984000;28;20053;-79
2023/08/30 06:52:27;;;;;;;7.82;5.68;;;;;;;;;;4973304;28;20026;-79
2023/08/30 06:54:52;;;;;;;8.38;5.40;;;;;;;;;;4973001;28;20089;-79
2023/08/30 06:57:18;;;;;;;8.93;5.72;;;;;;;;;;4990991;28;20033;-79
2023/08/30 06:59:43;;;;;;;8.90;5.68;;;;;;;;;;4971978;28;20056;-78
2023/08/30 07:02:08;;;;;;;9.90;5.68;;;;;;;;;;4989321;28;20030;-79
2023/08/30 07:04:34;;;;;;;7.53;5.68;;;;;;;;;;4985843;28;20048;-79
2023/08/30 07:06:59;;;;;;;8.73;6.07;;;;;;;;;;4987273;28;20026;-79
2023/08/30 07:09:28;;;;;;;8.38;5.85;;;;;;;;;;4974535;28;20018;-79
2023/08/30 07:11:55;;;;;;;10.52;6.22;;;;;;;;;;4968109;28;20026;-79
2023/08/30 07:14:20;;;;;;;9.88;5.80;;;;;;;;;;4970317;28;20473;-80
2023/08/30 07:16:46;;;;;;;8.13;5.57;;;;;;;;;;4991108;28;20033;-80
2023/08/30 07:19:11;;;;;;;10.32;6.07;;;;;;;;;;4992027;28;20022;-81
2023/08/30 07:21:38;;;;;;;9.45;5.70;;;;;;;;;;4988200;28;20034;-81
2023/08/30 07:24:05;;;;;;;8.27;5.88;;;;;;;;;;4984751;28;20065;-76
2023/08/30 07:26:31;;;;;;;9.45;5.88;;;;;;;;;;4989411;28;20665;-76
2023/08/30 07:28:56;;;;;;;11.48;6.20;;;;;;;;;;4986074;28;20113;-75
2023/08/30 07:31:22;;;;;;;9.80;6.18;;;;;;;;;;4971928;28;20034;-75
2023/08/30 07:33:47;;;;;;;10.05;5.60;;;;;;;;;;4990713;28;20096;-75
2023/08/30 07:36:13;;;;;;;8.70;5.75;;;;;;;;;;4987025;28;20034;-75
2023/08/30 07:38:38;;;;;;;9.57;5.93;;;;;;;;;;4972838;28;20034;-76
2023/08/30 07:41:03;;;;;;;9.27;5.72;;;;;;;;;;4987205;28;20406;-75
2023/08/30 07:43:29;;;;;;;11.60;6.20;;;;;;;;;;4987996;28;20112;-76
2023/08/30 07:45:54;;;;;;;7.82;5.13;;;;;;;;;;4986758;28;20479;-76
2023/08/30 07:48:20;;;;;;;8.70;5.82;;;;;;;;;;4987438;28;20080;-76
2023/08/30 07:50:45;;;;;;;8.57;5.65;;;;;;;;;;4987410;28;20034;-76
2023/08/30 07:53:10;;;;;;;7.90;5.55;;;;;;;;;;4986937;28;20026;-77
2023/08/30 07:55:36;;;;;;;10.32;7.00;;;;;;;;;;4970742;28;20121;-76
2023/08/30 07:58:03;;;;;;;10.35;6.38;;;;;;;;;;4988917;28;20109;-76
2023/08/30 08:00:28;;;;;;;8.18;5.85;;;;;;;;;;4974702;28;20050;-76
2023/08/30 08:02:54;;;;;;;7.47;5.43;;;;;;;;;;4970959;28;20142;-76
2023/08/30 08:05:19;;;;;;;8.95;5.53;;;;;;;;;;4993643;28;20033;-76
2023/08/30 08:07:44;;;;;;;9.18;5.40;;;;;;;;;;4971901;28;20023;-76
2023/08/30 08:10:10;;;;;;;8.65;6.18;;;;;;;;;;4986513;28;20073;-76
2023/08/30 08:12:35;;;;;;;8.80;6.25;;;;;;;;;;4988806;28;20030;-76
2023/08/30 08:15:01;;;;;;;9.13;5.90;;;;;;;;;;4981825;28;20113;-76
2023/08/30 08:17:27;;;;;;;9.32;5.82;;;;;;;;;;4985498;28;20026;-76
2023/08/30 08:19:52;;;;;;;7.95;6.00;;;;;;;;;;4987256;28;20034;-76
2023/08/30 08:22:17;;;;;;;8.90;6.47;;;;;;;;;;4984159;28;20034;-76
2023/08/30 08:24:45;;;;;;;8.77;5.72;;;;;;;;;;4983611;28;20113;-75
2023/08/30 08:27:11;;;;;;;8.48;5.15;;;;;;;;;;4981150;28;20019;-75
2023/08/30 08:29:37;;;;;;;6.35;4.63;;;;;;;;;;4986888;28;20035;-75
2023/08/30 08:32:03;;;;;;;8.82;5.80;;;;;;;;;;4990519;28;20049;-76
2023/08/30 08:34:28;;;;;;;6.97;5.47;;;;;;;;;;4975378;28;20042;-76
2023/08/30 08:36:53;;;;;;;6.22;4.35;;;;;;;;;;4982747;28;20038;-76
2023/08/30 08:39:19;;;;;;;6.05;4.30;;;;;;;;;;4972984;28;20034;-75
2023/08/30 08:41:45;;;;;;;7.30;4.60;;;;;;;;;;4983810;28;20085;-75
2023/08/30 08:44:11;;;;;;;5.72;3.72;;;;;;;;;;4990994;28;20026;-76
2023/08/30 08:46:39;;;;;;;6.07;4.03;;;;;;;;;;4992046;28;20022;-75
2023/08/30 08:49:17;;;;;;;5.68;3.92;;;;;;;;;;4987999;28;20122;-77
2023/08/30 08:51:43;;;;;;;5.28;3.10;;;;;;;;;;4971577;28;20042;-76
2023/08/30 08:54:10;;;;;;;6.28;3.72;;;;;;;;;;4983856;28;20037;-77
2023/08/30 08:56:37;;;;;;;5.95;3.72;;;;;;;;;;4993330;28;20481;-76
2023/08/30 08:59:03;;;;;;;5.50;3.63;;;;;;;;;;5009839;28;20113;-76
2023/08/30 09:01:28;;;;;;;5.32;2.90;;;;;;;;;;5008896;28;20083;-76
2023/08/30 09:03:54;;;;;;;4.22;2.70;;;;;;;;;;5008512;28;20034;-77
2023/08/30 09:06:21;;;;;;;3.80;2.50;;;;;;;;;;5005517;28;20465;-76
2023/08/30 09:08:46;;;;;;;4.15;2.92;;;;;;;;;;4991275;28;20115;-77
2023/08/30 09:11:12;;;;;;;6.70;3.20;;;;;;;;;;5012569;28;20034;-76
2023/08/30 09:13:37;;;;;;;4.60;2.90;;;;;;;;;;5000409;28;20062;-76
2023/08/30 09:16:02;;;;;;;4.22;2.90;;;;;;;;;;5008034;28;20022;-76
2023/08/30 09:18:28;;;;;;;5.32;3.30;;;;;;;;;;4992913;28;20066;-77
2023/08/30 09:21:08;;;;;;;5.47;3.50;;;;;;;;;;5009115;28;20033;-76
2023/08/30 09:23:34;;;;;;;5.88;3.88;;;;;;;;;;5005854;28;20037;-77
2023/08/30 09:26:00;;;;;;;6.25;4.28;;;;;;;;;;4993837;28;20022;-77
2023/08/30 09:28:25;;;;;;;8.05;3.97;;;;;;;;;;5007084;28;20071;-76
2023/08/30 09:30:52;;;;;;;6.35;4.85;;;;;;;;;;5009358;28;20485;-77
2023/08/30 09:33:22;;;;;;;7.07;5.10;;;;;;;;;;4990116;28;20076;-76
2023/08/30 09:35:47;;;;;;;7.30;5.15;;;;;;;;;;4988674;28;20122;-78
2023/08/30 09:38:19;;;;;;;7.90;5.50;;;;;;;;;;5004060;28;20033;-77
2023/08/30 09:40:45;;;;;;;8.40;5.57;;;;;;;;;;4985558;28;20034;-77
2023/08/30 09:43:12;;;;;;;7.45;5.97;;;;;;;;;;4982631;28;20033;-77
2023/08/30 09:45:37;;;;;;;7.60;5.75;;;;;;;;;;4999475;28;20030;-76
2023/08/30 09:48:04;;;;;;;8.18;6.15;;;;;;;;;;5000232;28;20040;-77
2023/08/30 09:50:34;;;;;;;8.82;6.45;;;;;;;;;;5002729;28;20373;-78
2023/08/30 09:53:04;;;;;;;7.95;6.20;;;;;;;;;;4987003;28;20030;-77
2023/08/30 09:55:30;;;;;;;7.75;6.50;;;;;;;;;;4999631;28;20036;-77
2023/08/30 09:57:55;;;;;;;7.90;6.32;;;;;;;;;;4984715;28;20026;-78
2023/08/30 10:00:23;;;;;;;8.02;6.75;;;;;;;;;;4997682;28;20108;-77
2023/08/30 10:02:49;;;;;;;8.77;6.85;;;;;;;;;;4984517;28;20540;-79
2023/08/30 10:05:15;;;;;;;8.60;7.03;;;;;;;;;;5006087;28;20112;-80
2023/08/30 10:07:43;;;;;;;9.05;7.38;;;;;;;;;;4994497;28;20402;-80
2023/08/30 10:10:10;;;;;;;9.80;7.20;;;;;;;;;;5008204;28;20908;-79
2023/08/30 10:12:36;;;;;;;8.60;7.35;;;;;;;;;;5006832;28;20030;-77
2023/08/30 10:15:02;;;;;;;8.82;7.13;;;;;;;;;;5012897;28;20028;-77
2023/08/30 10:17:34;;;;;;;10.05;8.13;;;;;;;;;;5010641;28;21100;-77
2023/08/30 10:20:04;;;;;;;9.63;7.88;;;;;;;;;;5013227;28;20037;-77
2023/08/30 10:22:30;;;;;;;11.73;7.88;;;;;;;;;;5002755;28;20033;-77
2023/08/30 10:25:01;;;;;;;8.95;7.80;;;;;;;;;;5012917;28;20101;-77
2023/08/30 10:27:27;;;;;;;9.85;7.90;;;;;;;;;;5010546;28;20129;-81
2023/08/30 10:29:54;;;;;;;9.50;8.13;;;;;;;;;;5015822;28;20417;-80
2023/08/30 10:32:22;;;;;;;9.93;8.43;;;;;;;;;;5010020;28;20397;-81
2023/08/30 10:34:49;;;;;;;9.63;7.47;;;;;;;;;;5010191;28;20029;-81
2023/08/30 10:37:15;;;;;;;10.25;8.07;;;;;;;;;;4995203;28;20454;-81
2023/08/30 10:39:41;;;;;;;9.90;7.43;;;;;;;;;;5012594;28;20064;-80
2023/08/30 10:42:11;;;;;;;9.45;7.30;;;;;;;;;;5009033;28;20053;-81
2023/08/30 10:44:48;;;;;;;11.68;7.63;;;;;;;;;;5005079;28;20065;-81
2023/08/30 10:47:28;;;;;;;9.05;7.32;;;;;;;;;;5004595;28;20384;-80
2023/08/30 10:49:58;;;;;;;9.68;6.72;;;;;;;;;;5003859;28;20408;-80
2023/08/30 10:52:25;;;;;;;8.70;6.03;;;;;;;;;;5010029;28;20533;-81
2023/08/30 10:54:51;;;;;;;8.13;6.00;;;;;;;;;;5011057;28;20517;-77
2023/08/30 10:57:25;;;;;;;10.48;6.28;;;;;;;;;;5012190;28;20109;-77
2023/08/30 11:00:16;;;;;;;7.47;5.47;;;;;;;;;;4996273;28;20025;-77
2023/08/30 11:02:59;;;;;;;11.27;5.97;;;;;;;;;;5006481;28;20493;-77
2023/08/30 11:05:27;;;;;;;9.20;6.22;;;;;;;;;;5005040;28;20021;-77
2023/08/30 11:07:53;;;;;;;7.65;5.57;;;;;;;;;;4990026;28;20049;-77
2023/08/30 11:10:20;;;;;;;8.07;5.55;;;;;;;;;;5006159;28;20042;-77
2023/08/30 11:12:46;;;;;;;7.53;5.50;;;;;;;;;;5006239;28;20029;-77
2023/08/30 11:15:14;;;;;;;6.30;4.32;;;;;;;;;;5005318;28;20026;-77
2023/08/30 11:17:39;;;;;;;6.65;4.20;;;;;;;;;;5002176;28;20034;-77
2023/08/30 11:20:07;;;;;;;6.20;3.45;;;;;;;;;;4983680;28;20405;-77
2023/08/30 11:22:35;;;;;;;8.18;3.50;;;;;;;;;;4978990;28;20547;-77
2023/08/30 11:25:01;;;;;;;6.07;3.55;;;;;;;;;;4998140;28;20085;-76
2023/08/30 11:27:26;;;;;;;6.05;3.78;;;;;;;;;;4978552;28;20422;-77
2023/08/30 11:29:51;;;;;;;6.15;3.40;;;;;;;;;;4983326;28;20038;-77
2023/08/30 11:32:17;;;;;;;7.60;3.70;;;;;;;;;;5003059;28;20385;-78
2023/08/30 11:34:42;;;;;;;8.15;3.85;;;;;;;;;;4982050;28;20021;-77
2023/08/30 11:37:08;;;;;;;6.72;4.07;;;;;;;;;;4985897;28;20034;-77
2023/08/30 11:39:34;;;;;;;7.80;4.38;;;;;;;;;;4989174;28;20482;-77
2023/08/30 11:41:59;;;;;;;7.88;4.53;;;;;;;;;;4986508;28;20041;-77
2023/08/30 11:44:28;;;;;;;7.13;3.80;;;;;;;;;;5007056;28;20025;-77
2023/08/30 11:46:59;;;;;;;7.38;3.72;;;;;;;;;;5001976;28;20022;-77
2023/08/30 11:49:26;;;;;;;10.35;4.28;;;;;;;;;;4999917;28;20029;-77
2023/08/30 11:51:52;;;;;;;6.43;4.47;;;;;;;;;;4987035;28;20072;-77
2023/08/30 11:54:19;;;;;;;8.82;4.88;;;;;;;;;;5002623;28;20544;-77
2023/08/30 11:56:45;;;;;;;6.72;4.28;;;;;;;;;;5005304;28;20112;-77
2023/08/30 11:59:21;;;;;;;6.18;4.15;;;;;;;;;;4981682;28;20113;-77
2023/08/30 12:01:48;;;;;;;8.45;4.32;;;;;;;;;;5006174;28;20441;-78
2023/08/30 12:04:13;;;;;;;6.57;4.28;;;;;;;;;;4986418;28;20410;-77
2023/08/30 12:06:39;;;;;;;7.88;4.10;;;;;;;;;;5011997;28;20029;-77
2023/08/30 12:09:07;;;;;;;6.32;3.80;;;;;;;;;;5004238;28;21415;-77
2023/08/30 12:11:33;;;;;;;6.30;3.45;;;;;;;;;;5009270;28;20432;-77
2023/08/30 12:14:02;;;;;;;7.47;3.20;;;;;;;;;;5011248;28;20056;-77
2023/08/30 12:16:27;;;;;;;7.28;3.67;;;;;;;;;;5013343;28;20040;-77
2023/08/30 12:18:53;;;;;;;7.07;3.35;;;;;;;;;;5008949;28;20393;-77
2023/08/30 12:21:18;;;;;;;9.90;3.60;;;;;;;;;;4989890;28;20034;-77
2023/08/30 12:23:43;;;;;;;8.02;3.60;;;;;;;;;;4993051;28;20121;-77
2023/08/30 12:26:10;;;;;;;8.27;3.58;;;;;;;;;;5014521;28;20045;-77
2023/08/30 12:28:41;;;;;;;9.10;4.07;;;;;;;;;;5007231;28;20072;-77
2023/08/30 12:31:06;;;;;;;9.05;3.00;;;;;;;;;;5004974;28;20022;-77
2023/08/30 12:33:34;;;;;;;5.38;2.70;;;;;;;;;;4980752;28;20052;-81
2023/08/30 12:36:00;;;;;;;8.00;3.03;;;;;;;;;;5002556;28;20105;-80
2023/08/30 12:38:25;;;;;;;9.52;3.60;;;;;;;;;;5009523;28;20113;-80
2023/08/30 12:40:53;;;;;;;7.05;3.00;;;;;;;;;;5011898;28;20037;-80
2023/08/30 12:43:19;;;;;;;6.78;2.50;;;;;;;;;;5007072;28;20029;-81
2023/08/30 12:45:45;;;;;;;5.63;2.42;;;;;;;;;;5002129;28;20030;-80
2023/08/30 12:48:14;;;;;;;8.38;2.50;;;;;;;;;;5007832;28;20038;-79
2023/08/30 12:50:39;;;;;;;6.80;2.45;;;;;;;;;;5008858;28;20029;-81
2023/08/30 12:53:06;;;;;;;7.15;2.72;;;;;;;;;;5006010;28;20058;-81
2023/08/30 12:55:31;;;;;;;14.45;3.10;;;;;;;;;;4974225;28;20034;-80
2023/08/30 12:57:57;;;;;;;7.38;2.40;;;;;;;;;;4993671;28;20049;-80
2023/08/30 13:00:22;;;;;;;6.95;2.83;;;;;;;;;;4990037;28;20109;-80
2023/08/30 13:02:48;;;;;;;7.28;2.78;;;;;;;;;;4989142;28;20091;-80
2023/08/30 13:05:13;;;;;;;8.18;2.50;;;;;;;;;;4988924;28;20026;-81
2023/08/30 13:07:39;;;;;;;7.28;2.40;;;;;;;;;;4971661;28;20037;-80
2023/08/30 13:10:06;;;;;;;9.07;2.70;;;;;;;;;;4990308;28;20026;-80
2023/08/30 13:12:31;;;;;;;6.65;2.35;;;;;;;;;;4987185;28;20390;-80
2023/08/30 13:14:56;;;;;;;11.07;2.85;;;;;;;;;;4987177;28;20026;-80
2023/08/30 13:17:22;;;;;;;8.90;3.20;;;;;;;;;;4966591;28;20041;-81
2023/08/30 13:19:47;;;;;;;9.43;2.70;;;;;;;;;;4984573;28;20038;-81
2023/08/30 13:22:12;;;;;;;5.88;2.88;;;;;;;;;;4991987;28;20026;-81
2023/08/30 13:24:38;;;;;;;8.48;2.30;;;;;;;;;;4974513;28;20100;-81
2023/08/30 13:27:04;;;;;;;7.30;2.45;;;;;;;;;;4990401;28;20026;-79
2023/08/30 13:29:29;;;;;;;5.68;2.40;;;;;;;;;;4989499;28;20093;-81
2023/08/30 13:31:55;;;;;;;7.80;2.60;;;;;;;;;;4985564;28;20060;-80
2023/08/30 13:34:20;;;;;;;5.35;2.20;;;;;;;;;;4976665;28;20022;-81
2023/08/30 13:36:46;;;;;;;6.72;2.80;;;;;;;;;;4986658;28;20133;-82
2023/08/30 13:39:11;;;;;;;8.45;3.08;;;;;;;;;;4982026;28;20433;-81
2023/08/30 13:41:36;;;;;;;6.05;2.60;;;;;;;;;;4971093;28;20649;-82
2023/08/30 13:44:05;;;;;;;6.93;2.30;;;;;;;;;;4985070;28;20030;-78
2023/08/30 13:46:30;;;;;;;6.47;2.72;;;;;;;;;;4992102;28;20501;-78
2023/08/30 13:48:56;;;;;;;10.68;2.50;;;;;;;;;;4987629;28;20117;-78
2023/08/30 13:51:22;;;;;;;6.15;2.40;;;;;;;;;;4969430;28;20073;-78
2023/08/30 13:53:48;;;;;;;6.63;2.50;;;;;;;;;;4984712;28;20470;-78
2023/08/30 13:56:13;;;;;;;6.47;2.65;;;;;;;;;;4986473;28;20027;-79
2023/08/30 13:58:38;;;;;;;7.65;2.60;;;;;;;;;;4986343;28;20033;-78
2023/08/30 14:01:04;;;;;;;5.57;2.20;;;;;;;;;;4985264;28;20030;-78
2023/08/30 14:03:30;;;;;;;7.03;2.40;;;;;;;;;;4986745;28;20037;-78
2023/08/30 14:05:55;;;;;;;6.25;2.28;;;;;;;;;;4971344;28;20084;-78
2023/08/30 14:08:20;;;;;;;10.23;2.63;;;;;;;;;;4990552;28;20030;-78
2023/08/30 14:10:46;;;;;;;6.97;2.38;;;;;;;;;;4986216;28;20026;-78
2023/08/30 14:13:11;;;;;;;6.93;2.40;;;;;;;;;;4989722;28;20049;-77
2023/08/30 14:15:36;;;;;;;6.32;2.05;;;;;;;;;;4988665;28;20150;-78
2023/08/30 14:18:02;;;;;;;6.15;2.33;;;;;;;;;;4989442;28;20026;-78
2023/08/30 14:20:28;;;;;;;5.93;2.30;;;;;;;;;;4983004;28;20034;-77
2023/08/30 14:22:53;;;;;;;5.10;2.67;;;;;;;;;;4987661;28;20248;-78
2023/08/30 14:25:18;;;;;;;7.15;2.63;;;;;;;;;;4980874;28;20049;-78
2023/08/30 14:27:44;;;;;;;5.07;2.33;;;;;;;;;;4986433;28;20105;-78
2023/08/30 14:30:10;;;;;;;9.88;2.50;;;;;;;;;;4986478;28;20029;-79
2023/08/30 14:32:35;;;;;;;4.57;2.38;;;;;;;;;;4983270;28;20042;-78
2023/08/30 14:35:03;;;;;;;6.18;2.60;;;;;;;;;;4983905;28;20474;-79
2023/08/30 14:37:28;;;;;;;5.10;2.42;;;;;;;;;;4992999;28;20493;-78
2023/08/30 14:39:54;;;;;;;5.03;2.63;;;;;;;;;;4985111;28;20025;-78